sensor_id;sensor_type;location;lat;lon;timestamp;pressure;altitude;pressure_sealevel;temperature;humidity
63582;BME280;49727;51.078;17.066;2023-04-22T00:00:53;100095.56;;;8.14;53.13
63582;BME280;49727;51.078;17.066;2023-04-22T00:15:53;100089.44;;;7.88;53.25
63582;BME280;49727;51.078;17.066;2023-04-22T00:30:54;100095.75;;;7.69;53.73
63582;BME280;49727;51.078;17.066;2023-04-22T00:45:56;100088.75;;;7.41;54.19
63582;BME280;49727;51.078;17.066;2023-04-22T01:00:57;100098.41;;;7.15;55.08
63582;BME280;49727;51.078;17.066;2023-04-22T01:15:59;100106.50;;;7.13;56.39
63582;BME280;49727;51.078;17.066;2023-04-22T01:31:00;100099.34;;;7.05;56.09
63582;BME280;49727;51.078;17.066;2023-04-22T01:46:01;100095.50;;;6.90;56.85
63582;BME280;49727;51.078;17.066;2023-04-22T02:01:03;100086.94;;;6.78;57.48
63582;BME280;49727;51.078;17.066;2023-04-22T02:16:04;100069.06;;;6.62;58.81
63582;BME280;49727;51.078;17.066;2023-04-22T02:31:04;100063.56;;;6.46;59.39
63582;BME280;49727;51.078;17.066;2023-04-22T02:46:05;100058.94;;;6.20;59.77
63582;BME280;49727;51.078;17.066;2023-04-22T03:01:05;100055.09;;;6.04;60.56
63582;BME280;49727;51.078;17.066;2023-04-22T03:16:05;100051.34;;;5.87;61.24
63582;BME280;49727;51.078;17.066;2023-04-22T03:31:06;100055.44;;;5.72;61.82
63582;BME280;49727;51.078;17.066;2023-04-22T03:46:06;100048.34;;;5.63;62.40
63582;BME280;49727;51.078;17.066;2023-04-22T04:01:07;100038.63;;;5.63;62.99
63582;BME280;49727;51.078;17.066;2023-04-22T04:16:07;100037.59;;;5.74;63.11
63582;BME280;49727;51.078;17.066;2023-04-22T04:31:09;100039.09;;;5.96;63.39
63582;BME280;49727;51.078;17.066;2023-04-22T04:46:09;100040.22;;;6.31;64.17
63582;BME280;49727;51.078;17.066;2023-04-22T05:01:09;100053.28;;;6.88;64.01
63582;BME280;49727;51.078;17.066;2023-04-22T05:16:10;100058.34;;;7.54;63.44
63582;BME280;49727;51.078;17.066;2023-04-22T05:31:10;100068.66;;;8.36;62.13
63582;BME280;49727;51.078;17.066;2023-04-22T05:46:10;100066.09;;;9.36;60.98
63582;BME280;49727;51.078;17.066;2023-04-22T06:01:11;100056.66;;;10.47;59.08
63582;BME280;49727;51.078;17.066;2023-04-22T06:16:12;100066.94;;;11.60;56.80
63582;BME280;49727;51.078;17.066;2023-04-22T06:31:12;100072.59;;;12.33;54.10
63582;BME280;49727;51.078;17.066;2023-04-22T06:46:12;100069.84;;;13.14;52.34
63582;BME280;49727;51.078;17.066;2023-04-22T07:01:13;100076.03;;;13.58;49.74
63582;BME280;49727;51.078;17.066;2023-04-22T07:16:13;100066.00;;;14.59;48.41
63582;BME280;49727;51.078;17.066;2023-04-22T07:31:13;100071.81;;;16.04;45.42
63582;BME280;49727;51.078;17.066;2023-04-22T07:46:14;100078.78;;;16.98;41.93
63582;BME280;49727;51.078;17.066;2023-04-22T08:01:14;100069.75;;;17.17;41.15
63582;BME280;49727;51.078;17.066;2023-04-22T08:16:15;100064.81;;;18.71;39.90
63582;BME280;49727;51.078;17.066;2023-04-22T08:31:15;100057.75;;;20.32;37.13
63582;BME280;49727;51.078;17.066;2023-04-22T08:46:16;100048.91;;;21.35;33.83
63582;BME280;49727;51.078;17.066;2023-04-22T09:01:20;100052.91;;;22.84;31.50
63582;BME280;49727;51.078;17.066;2023-04-22T09:16:22;100060.16;;;24.51;29.18
63582;BME280;49727;51.078;17.066;2023-04-22T09:31:23;100052.31;;;38.15;15.73
63582;BME280;49727;51.078;17.066;2023-04-22T09:46:24;100036.78;;;42.47;10.58
63582;BME280;49727;51.078;17.066;2023-04-22T10:01:37;100023.91;;;44.20;8.31
63582;BME280;49727;51.078;17.066;2023-04-22T10:16:42;100014.44;;;41.91;8.17
63582;BME280;49727;51.078;17.066;2023-04-22T10:32:04;100002.00;;;35.11;11.58
63582;BME280;49727;51.078;17.066;2023-04-22T10:47:05;100006.59;;;31.14;13.47
63582;BME280;49727;51.078;17.066;2023-04-22T11:02:06;99991.72;;;26.83;16.90
63582;BME280;49727;51.078;17.066;2023-04-22T11:17:08;99955.59;;;26.91;17.24
63582;BME280;49727;51.078;17.066;2023-04-22T11:32:09;99968.78;;;26.84;18.07
63582;BME280;49727;51.078;17.066;2023-04-22T11:47:10;99947.22;;;26.32;18.81
63582;BME280;49727;51.078;17.066;2023-04-22T12:02:11;99946.34;;;25.77;19.27
63582;BME280;49727;51.078;17.066;2023-04-22T12:17:12;99926.50;;;24.68;20.02
63582;BME280;49727;51.078;17.066;2023-04-22T12:32:12;99909.69;;;23.97;20.91
63582;BME280;49727;51.078;17.066;2023-04-22T12:47:12;99905.13;;;24.13;21.12
63582;BME280;49727;51.078;17.066;2023-04-22T13:02:12;99868.38;;;24.11;21.17
63582;BME280;49727;51.078;17.066;2023-04-22T13:17:13;99861.22;;;22.93;22.46
63582;BME280;49727;51.078;17.066;2023-04-22T13:32:13;99848.22;;;22.95;22.57
63582;BME280;49727;51.078;17.066;2023-04-22T13:47:14;99849.81;;;22.59;23.23
63582;BME280;49727;51.078;17.066;2023-04-22T14:02:14;99831.34;;;22.28;23.76
63582;BME280;49727;51.078;17.066;2023-04-22T14:17:15;99821.00;;;21.76;24.72
63582;BME280;49727;51.078;17.066;2023-04-22T14:32:15;99813.19;;;21.35;25.60
63582;BME280;49727;51.078;17.066;2023-04-22T14:47:15;99800.44;;;20.62;26.40
63582;BME280;49727;51.078;17.066;2023-04-22T15:02:16;99784.63;;;20.20;26.62
63582;BME280;49727;51.078;17.066;2023-04-22T15:17:17;99775.06;;;20.01;27.28
63582;BME280;49727;51.078;17.066;2023-04-22T15:32:17;99772.34;;;19.72;28.27
63582;BME280;49727;51.078;17.066;2023-04-22T15:47:18;99760.28;;;19.62;29.12
63582;BME280;49727;51.078;17.066;2023-04-22T16:02:19;99749.78;;;19.49;30.00
63582;BME280;49727;51.078;17.066;2023-04-22T16:17:19;99754.16;;;19.26;30.40
63582;BME280;49727;51.078;17.066;2023-04-22T16:32:19;99734.84;;;18.94;30.28
63582;BME280;49727;51.078;17.066;2023-04-22T16:47:20;99721.47;;;18.64;30.71
63582;BME280;49727;51.078;17.066;2023-04-22T17:02:20;99720.97;;;18.31;30.95
63582;BME280;49727;51.078;17.066;2023-04-22T17:17:20;99703.69;;;17.97;31.22
63582;BME280;49727;51.078;17.066;2023-04-22T17:32:21;99703.75;;;17.48;32.18
63582;BME280;49727;51.078;17.066;2023-04-22T17:47:21;99699.97;;;17.00;33.14
63582;BME280;49727;51.078;17.066;2023-04-22T18:02:23;99708.41;;;16.41;34.60
63582;BME280;49727;51.078;17.066;2023-04-22T18:17:24;99715.19;;;15.93;36.25
63582;BME280;49727;51.078;17.066;2023-04-22T18:32:24;99721.38;;;15.48;37.28
63582;BME280;49727;51.078;17.066;2023-04-22T18:47:25;99729.63;;;15.01;38.65
63582;BME280;49727;51.078;17.066;2023-04-22T19:02:26;99720.59;;;14.55;40.39
63582;BME280;49727;51.078;17.066;2023-04-22T19:17:26;99720.19;;;14.25;41.62
63582;BME280;49727;51.078;17.066;2023-04-22T19:32:27;99726.97;;;13.87;43.00
63582;BME280;49727;51.078;17.066;2023-04-22T19:47:28;99710.16;;;13.39;44.01
63582;BME280;49727;51.078;17.066;2023-04-22T20:02:28;99707.91;;;13.00;45.42
63582;BME280;49727;51.078;17.066;2023-04-22T20:17:29;99701.13;;;12.69;46.86
63582;BME280;49727;51.078;17.066;2023-04-22T20:32:30;99707.13;;;12.43;47.19
63582;BME280;49727;51.078;17.066;2023-04-22T20:47:31;99704.38;;;12.08;48.52
63582;BME280;49727;51.078;17.066;2023-04-22T21:02:32;99703.66;;;11.78;49.43
63582;BME280;49727;51.078;17.066;2023-04-22T21:17:34;99697.47;;;11.56;50.33
63582;BME280;49727;51.078;17.066;2023-04-22T21:32:34;99702.69;;;11.27;50.75
63582;BME280;49727;51.078;17.066;2023-04-22T21:47:39;99698.22;;;11.13;51.22
63582;BME280;49727;51.078;17.066;2023-04-22T22:02:40;99692.63;;;10.93;52.09
63582;BME280;49727;51.078;17.066;2023-04-22T22:17:42;99695.94;;;10.65;52.81
63582;BME280;49727;51.078;17.066;2023-04-22T22:32:43;99693.53;;;10.40;53.37
63582;BME280;49727;51.078;17.066;2023-04-22T22:47:43;99692.25;;;10.13;54.40
63582;BME280;49727;51.078;17.066;2023-04-22T23:02:44;99693.63;;;9.86;55.30
63582;BME280;49727;51.078;17.066;2023-04-22T23:17:44;99688.44;;;9.69;56.07
63582;BME280;49727;51.078;17.066;2023-04-22T23:32:45;99675.31;;;9.36;56.64
63582;BME280;49727;51.078;17.066;2023-04-22T23:47:47;99663.19;;;9.10;57.88
